Time;durP1;ratioP1;P1;durP2;ratioP2;P2;SDS_P1;SDS_P2;PMS_P1;PMS_P2;Temp;Humidity;BMP_temperature;BMP_pressure;BME280_temperature;BME280_humidity;BME280_pressure;Samples;Min_cycle;Max_cycle;Signal;HPM_P1;HPM_P2
2022/08/19 00:00:13;;;;;;;9.13;3.70;;;;;;;27.90;44.15;100330.97;2103499;28;20487;-71
2022/08/19 00:01:37;;;;;;;8.75;4.07;;;;;;;27.88;44.00;100320.25;2097800;28;20044;-71
2022/08/19 00:03:00;;;;;;;5.75;3.72;;;;;;;27.90;44.13;100336.41;2099692;28;20492;-71
2022/08/19 00:04:26;;;;;;;7.15;3.58;;;;;;;27.88;43.96;100328.38;2102791;28;20500;-71
2022/08/19 00:05:48;;;;;;;7.22;3.88;;;;;;;27.86;44.29;100330.31;2103190;28;20122;-71
2022/08/19 00:07:10;;;;;;;9.55;4.50;;;;;;;27.83;44.25;100318.78;2111817;28;20039;-71
2022/08/19 00:08:32;;;;;;;7.70;4.13;;;;;;;27.82;44.38;100325.19;2109685;28;20035;-71
2022/08/19 00:09:55;;;;;;;7.65;3.63;;;;;;;27.83;44.21;100332.34;2100819;28;20514;-71
2022/08/19 00:11:18;;;;;;;6.20;3.90;;;;;;;27.80;44.37;100318.97;2108533;28;20102;-72
2022/08/19 00:12:41;;;;;;;12.00;5.32;;;;;;;27.80;44.28;100321.69;2107397;28;20119;-71
2022/08/19 00:14:08;;;;;;;8.20;4.13;;;;;;;27.79;44.45;100323.50;2095036;28;20056;-71
2022/08/19 00:15:31;;;;;;;8.80;3.90;;;;;;;27.80;44.41;100324.38;2092814;28;20044;-71
2022/08/19 00:16:54;;;;;;;9.93;3.67;;;;;;;27.79;44.40;100325.34;2108137;28;20119;-71
2022/08/19 00:18:16;;;;;;;8.30;4.30;;;;;;;27.76;44.52;100318.31;2105832;28;20103;-70
2022/08/19 00:19:40;;;;;;;8.68;3.80;;;;;;;27.74;44.43;100320.22;2103476;28;20131;-71
2022/08/19 00:21:02;;;;;;;7.75;4.03;;;;;;;27.72;44.49;100314.88;2101866;28;20484;-72
2022/08/19 00:22:26;;;;;;;6.75;3.30;;;;;;;27.69;44.71;100315.09;2105462;28;20040;-72
2022/08/19 00:23:48;;;;;;;8.02;4.03;;;;;;;27.66;44.71;100323.41;2103633;28;20047;-72
2022/08/19 00:25:11;;;;;;;9.35;3.80;;;;;;;27.64;44.85;100314.50;2093298;28;20082;-71
2022/08/19 00:26:33;;;;;;;9.80;4.03;;;;;;;27.62;44.82;100318.28;2100287;28;20085;-72
2022/08/19 00:27:55;;;;;;;;;;;;;;;27.60;44.98;100314.78;2098222;28;20100;-71
2022/08/19 00:29:18;;;;;;;;;;;;;;;27.58;45.07;100312.16;2099104;28;20015;-71
2022/08/19 00:30:41;;;;;;;7.53;4.18;;;;;;;27.59;44.90;100315.75;2105337;28;19935;-72
2022/08/19 00:32:03;;;;;;;9.60;4.13;;;;;;;27.61;44.91;100320.13;2120370;27;20043;-71
2022/08/19 00:33:27;;;;;;;7.25;3.80;;;;;;;27.62;44.97;100321.00;2099357;28;20202;-71
2022/08/19 00:34:52;;;;;;;9.10;3.92;;;;;;;27.61;44.97;100320.13;2102699;28;20048;-71
2022/08/19 00:36:15;;;;;;;8.07;3.92;;;;;;;27.61;44.96;100320.13;2094673;28;20048;-71
2022/08/19 00:37:38;;;;;;;8.00;4.00;;;;;;;27.64;45.08;100319.03;2083718;28;20045;-72
2022/08/19 00:38:59;;;;;;;7.93;3.78;;;;;;;27.67;44.78;100314.31;2099433;28;20052;-71
2022/08/19 00:40:23;;;;;;;8.00;3.85;;;;;;;27.69;44.86;100312.38;2105462;28;20163;-71
2022/08/19 00:41:45;;;;;;;8.25;4.30;;;;;;;27.70;44.94;100313.22;2118657;27;20154;-71
2022/08/19 00:43:12;;;;;;;6.18;3.75;;;;;;;27.69;44.90;100311.50;2091068;28;20519;-71
2022/08/19 00:44:35;;;;;;;7.32;3.95;;;;;;;27.67;45.09;100311.59;2109531;28;20040;-71
2022/08/19 00:45:58;;;;;;;8.07;3.90;;;;;;;27.66;45.06;100317.09;2099070;28;20571;-71
2022/08/19 00:47:21;;;;;;;7.75;3.70;;;;;;;27.63;45.26;100318.19;2100576;28;20048;-71
2022/08/19 00:48:44;;;;;;;7.10;3.72;;;;;;;27.62;45.32;100321.00;2103645;28;20052;-71
2022/08/19 00:50:11;;;;;;;5.72;3.53;;;;;;;27.63;45.40;100318.19;2103078;28;20048;-72
2022/08/19 00:51:34;;;;;;;8.27;3.40;;;;;;;27.63;45.18;100318.19;2104506;28;20091;-72
2022/08/19 00:52:57;;;;;;;9.13;5.18;;;;;;;27.65;45.36;100318.94;2094855;28;20045;-71
2022/08/19 00:54:21;;;;;;;7.05;3.67;;;;;;;27.66;45.33;100314.41;2102945;28;20083;-71
2022/08/19 00:55:45;;;;;;;7.00;4.20;;;;;;;27.67;45.42;100321.56;2095087;28;20049;-71
2022/08/19 00:57:12;;;;;;;7.32;4.03;;;;;;;27.67;45.57;100311.59;2098785;28;20140;-71
2022/08/19 00:58:37;;;;;;;7.47;3.67;;;;;;;27.66;45.73;100314.41;2101538;28;20044;-71
2022/08/19 01:00:02;;;;;;;6.13;3.50;;;;;;;27.68;45.64;100321.50;2093166;28;20067;-71
2022/08/19 01:01:25;;;;;;;6.85;3.63;;;;;;;27.69;45.60;100315.09;2108890;28;20666;-71
2022/08/19 01:02:48;;;;;;;8.10;4.00;;;;;;;27.70;45.54;100311.38;2096238;28;20484;-72
2022/08/19 01:04:10;;;;;;;7.57;4.03;;;;;;;27.70;45.55;100310.50;2092737;28;20047;-72
2022/08/19 01:05:32;;;;;;;7.50;3.75;;;;;;;27.69;45.60;100325.94;2108745;28;20044;-71
2022/08/19 01:06:55;;;;;;;5.97;4.10;;;;;;;27.71;45.91;100324.00;2105348;28;20143;-71
2022/08/19 01:08:20;;;;;;;7.38;4.43;;;;;;;27.71;45.74;100314.97;2120003;27;20043;-72
2022/08/19 01:09:41;;;;;;;7.18;3.83;;;;;;;27.68;45.61;100316.06;2106592;28;20052;-71
2022/08/19 01:11:05;;;;;;;7.68;3.92;;;;;;;27.65;45.74;100309.94;2102656;28;20118;-71
2022/08/19 01:12:31;;;;;;;11.55;3.92;;;;;;;27.63;45.75;100312.78;2120682;27;20528;-71
2022/08/19 01:13:54;;;;;;;8.45;4.35;;;;;;;27.61;45.81;100309.28;2099313;28;20056;-71
2022/08/19 01:15:21;;;;;;;8.23;4.18;;;;;;;27.63;45.93;100307.34;2100059;28;20076;-71
2022/08/19 01:16:46;;;;;;;8.95;3.67;;;;;;;27.66;45.64;100311.69;2118922;27;20402;-71
2022/08/19 01:18:11;;;;;;;9.40;4.00;;;;;;;27.71;45.81;100314.97;2099398;28;20114;-71
2022/08/19 01:19:38;;;;;;;9.63;4.30;;;;;;;27.68;45.92;100316.06;2108875;28;20097;-71
2022/08/19 01:21:05;;;;;;;6.55;3.80;;;;;;;27.67;45.96;100317.03;2098676;28;20044;-71
2022/08/19 01:22:33;;;;;;;8.15;4.80;;;;;;;27.66;45.78;100322.53;2117607;27;20042;-71
2022/08/19 01:23:55;;;;;;;6.85;4.20;;;;;;;27.67;45.92;100308.88;2107478;28;20052;-71
2022/08/19 01:25:23;;;;;;;9.10;4.20;;;;;;;27.67;45.96;100317.03;2119356;27;20099;-71
2022/08/19 01:26:45;;;;;;;5.80;3.80;;;;;;;27.64;46.11;100309.06;2106735;28;20040;-71
2022/08/19 01:28:08;;;;;;;11.27;4.75;;;;;;;27.66;45.95;100317.97;2093937;28;20045;-71
2022/08/19 01:29:30;;;;;;;7.35;3.63;;;;;;;27.65;46.11;100310.81;2110280;28;20097;-71
2022/08/19 01:30:53;;;;;;;9.02;4.20;;;;;;;27.63;46.14;100320.91;2097780;28;20642;-71
2022/08/19 01:32:17;;;;;;;9.00;4.18;;;;;;;27.59;46.13;100308.47;2102194;28;20044;-71
2022/08/19 01:33:39;;;;;;;8.07;4.22;;;;;;;27.56;46.23;100314.13;2111091;28;20134;-71
2022/08/19 01:35:03;;;;;;;7.03;4.00;;;;;;;27.54;46.33;100312.44;2105339;28;20428;-71
2022/08/19 01:36:28;;;;;;;7.05;3.75;;;;;;;27.50;46.58;100309.03;2118981;27;20542;-71
2022/08/19 01:37:54;;;;;;;8.18;3.90;;;;;;;27.47;46.60;100311.03;2107427;28;20040;-71
2022/08/19 01:39:22;;;;;;;8.95;3.80;;;;;;;27.44;46.65;100308.53;2101066;28;20500;-72
2022/08/19 01:40:44;;;;;;;8.15;4.45;;;;;;;27.44;46.62;100311.25;2096819;28;20076;-71
2022/08/19 01:42:09;;;;;;;10.05;4.25;;;;;;;27.42;46.72;100314.06;2099551;28;20086;-72
2022/08/19 01:43:31;;;;;;;6.13;4.15;;;;;;;27.41;46.83;100316.84;2094764;28;20175;-72
2022/08/19 01:44:54;;;;;;;6.00;3.60;;;;;;;27.44;46.68;100313.97;2109499;27;20112;-71
2022/08/19 01:46:16;;;;;;;8.95;4.47;;;;;;;27.47;46.74;100314.63;2104368;28;20054;-71
2022/08/19 01:47:40;;;;;;;7.68;4.15;;;;;;;27.51;46.55;100304.47;2105260;28;20070;-71
2022/08/19 01:49:03;;;;;;;8.30;4.18;;;;;;;27.55;46.50;100308.78;2094303;28;20552;-72
2022/08/19 01:50:27;;;;;;;9.48;5.05;;;;;;;27.53;46.44;100311.56;2116229;27;20458;-72
2022/08/19 01:51:50;;;;;;;8.90;4.15;;;;;;;27.57;46.47;100318.53;2107853;28;20048;-71
2022/08/19 01:53:13;;;;;;;10.48;4.32;;;;;;;27.59;46.31;100310.31;2109955;28;20134;-71
2022/08/19 01:54:36;;;;;;;7.03;4.07;;;;;;;27.58;46.29;100314.88;2099343;28;20036;-71
2022/08/19 01:55:58;;;;;;;5.60;3.58;;;;;;;27.57;46.30;100320.41;2110909;28;20594;-71
2022/08/19 01:57:21;;;;;;;8.82;3.90;;;;;;;27.54;46.67;100313.31;2094667;28;20051;-72
2022/08/19 01:58:50;;;;;;;9.02;3.83;;;;;;;27.56;46.46;100322.25;2102500;28;20042;-71
2022/08/19 02:00:15;;;;;;;8.40;4.95;;;;;;;27.56;46.32;100319.53;2101046;28;20074;-71
2022/08/19 02:01:36;;;;;;;6.90;3.75;;;;;;;27.56;46.36;100316.81;2104322;28;20123;-71
2022/08/19 02:03:00;;;;;;;9.98;4.22;;;;;;;27.55;46.42;100319.63;2096353;28;20463;-71
2022/08/19 02:04:25;;;;;;;9.95;4.18;;;;;;;27.54;46.49;100323.31;2115711;27;20482;-71
2022/08/19 02:05:46;;;;;;;8.32;3.72;;;;;;;27.52;46.43;100317.97;2106401;28;20079;-72
2022/08/19 02:07:10;;;;;;;6.18;3.35;;;;;;;27.51;46.41;100324.31;2102009;28;20143;-72
2022/08/19 02:08:37;;;;;;;7.05;3.92;;;;;;;27.48;46.36;100324.53;2094401;28;20101;-71
2022/08/19 02:10:03;;;;;;;8.07;3.20;;;;;;;27.44;46.58;100317.53;2111167;28;20040;-71
2022/08/19 02:11:31;;;;;;;7.20;4.22;;;;;;;27.45;46.69;100321.97;2107076;28;20081;-71
2022/08/19 02:12:53;;;;;;;7.22;3.88;;;;;;;27.49;46.37;100320.84;2111803;28;20562;-71
2022/08/19 02:14:16;;;;;;;8.77;4.10;;;;;;;27.51;46.40;100318.91;2095967;28;20147;-71
2022/08/19 02:15:38;;;;;;;5.95;3.88;;;;;;;27.52;46.40;100320.69;2098366;28;20064;-72
2022/08/19 02:17:00;;;;;;;8.80;4.15;;;;;;;27.51;46.35;100309.88;2096985;28;20048;-71
2022/08/19 02:18:22;;;;;;;8.02;4.05;;;;;;;27.48;46.47;100310.09;2093166;28;20131;-71
2022/08/19 02:19:44;;;;;;;7.00;3.88;;;;;;;27.45;46.44;100311.13;2093846;28;20158;-71
2022/08/19 02:21:06;;;;;;;9.23;3.63;;;;;;;27.42;46.48;100314.06;2102157;28;20135;-71
2022/08/19 02:22:28;;;;;;;6.68;4.50;;;;;;;27.41;46.61;100317.72;2103893;28;20051;-72
2022/08/19 02:23:53;;;;;;;12.80;3.92;;;;;;;27.41;46.57;100314.13;2110568;28;20039;-72
2022/08/19 02:25:15;;;;;;;8.45;3.97;;;;;;;27.35;46.75;100312.69;2113459;28;20044;-71
2022/08/19 02:26:38;;;;;;;7.05;4.28;;;;;;;27.34;46.80;100309.09;2102996;28;20079;-71
2022/08/19 02:27:59;;;;;;;6.38;4.05;;;;;;;27.33;46.96;100314.59;2101932;28;20148;-71
2022/08/19 02:29:22;;;;;;;5.35;3.80;;;;;;;27.34;46.90;100306.38;2110117;28;20407;-71
2022/08/19 02:30:43;;;;;;;7.03;3.75;;;;;;;27.34;46.95;100300.09;2103323;28;20542;-71
2022/08/19 02:32:06;;;;;;;12.38;4.38;;;;;;;27.33;46.83;100301.91;2102092;28;20043;-71
2022/08/19 02:33:29;;;;;;;7.18;3.58;;;;;;;27.34;46.71;100303.66;2118241;27;20051;-72
2022/08/19 02:34:52;;;;;;;9.32;4.13;;;;;;;27.33;46.83;100298.34;2097314;28;20078;-71
2022/08/19 02:36:15;;;;;;;9.90;4.40;;;;;;;27.33;46.75;100299.22;2101758;28;20052;-71
2022/08/19 02:39:19;;;;;;;8.05;3.92;;;;;;;27.33;46.93;100303.75;2104576;28;20048;-72
2022/08/19 02:40:41;;;;;;;7.78;3.38;;;;;;;27.31;46.87;100295.72;2103241;28;20523;-71
2022/08/19 02:42:03;;;;;;;;;;;;;;;27.29;46.74;100296.78;2101730;28;20048;-72
2022/08/19 02:43:27;;;;;;;8.50;3.88;;;;;;;27.30;46.83;100294.00;2116847;27;19973;-71
2022/08/19 02:44:51;;;;;;;8.25;4.00;;;;;;;27.37;46.56;100287.19;2108366;27;20056;-71
2022/08/19 02:46:16;;;;;;;7.60;4.00;;;;;;;27.41;46.49;100298.75;2119490;27;20046;-71
2022/08/19 02:47:39;;;;;;;8.32;4.25;;;;;;;27.43;46.44;100293.22;2112736;28;20059;-71
2022/08/19 02:49:04;;;;;;;10.23;4.00;;;;;;;27.45;46.51;100291.28;2101037;28;20089;-72
2022/08/19 02:50:27;;;;;;;6.38;3.63;;;;;;;27.48;46.46;100286.56;2094218;28;20061;-72
2022/08/19 02:51:50;;;;;;;5.65;3.40;;;;;;;27.49;46.47;100292.84;2101407;28;20103;-71
2022/08/19 02:53:11;;;;;;;11.65;3.80;;;;;;;27.48;46.44;100291.97;2109563;28;20062;-72
2022/08/19 02:54:36;;;;;;;8.43;3.88;;;;;;;27.49;46.36;100291.00;2103747;28;20043;-71
2022/08/19 02:55:57;;;;;;;10.10;4.03;;;;;;;27.50;46.28;100298.19;2109995;28;20142;-71
2022/08/19 02:57:20;;;;;;;5.85;3.28;;;;;;;27.50;46.44;100297.31;2104012;28;20055;-71
2022/08/19 02:58:42;;;;;;;8.45;3.97;;;;;;;27.49;46.33;100288.31;2102224;28;20105;-70
2022/08/19 03:00:06;;;;;;;9.02;3.92;;;;;;;27.48;46.48;100294.69;2096466;28;20524;-71
2022/08/19 03:01:30;;;;;;;6.53;3.28;;;;;;;27.45;46.44;100289.44;2098860;28;20052;-71
2022/08/19 03:02:52;;;;;;;7.13;3.97;;;;;;;27.48;46.44;100294.69;2093287;28;20056;-71
2022/08/19 03:04:15;;;;;;;8.38;4.30;;;;;;;27.50;46.37;100302.75;2099405;28;20055;-71
2022/08/19 03:05:38;;;;;;;10.02;3.70;;;;;;;27.48;46.43;100300.13;2118308;28;20382;-72
2022/08/19 03:07:00;;;;;;;7.82;3.60;;;;;;;27.47;46.33;100297.50;2099118;28;20432;-71
2022/08/19 03:08:22;;;;;;;7.03;3.47;;;;;;;27.46;46.41;100302.03;2117627;27;20070;-70
2022/08/19 03:09:47;;;;;;;8.98;3.50;;;;;;;27.45;46.51;100292.16;2108064;28;20059;-71
2022/08/19 03:11:15;;;;;;;6.93;3.70;;;;;;;27.43;46.40;100298.66;2119188;27;20142;-71
2022/08/19 03:12:39;;;;;;;6.82;3.83;;;;;;;27.39;46.61;100300.66;2100222;28;20117;-71
2022/08/19 03:14:03;;;;;;;6.90;3.53;;;;;;;27.35;46.80;100299.13;2095727;28;20045;-71
2022/08/19 03:15:24;;;;;;;7.63;3.90;;;;;;;27.33;46.79;100304.63;2098293;28;20580;-71
2022/08/19 03:16:50;;;;;;;8.50;3.75;;;;;;;27.30;46.77;100303.97;2101106;28;20135;-71
2022/08/19 03:18:11;;;;;;;6.97;3.90;;;;;;;27.28;46.73;100300.47;2102313;28;20082;-71
2022/08/19 03:19:34;;;;;;;8.20;4.30;;;;;;;27.25;46.82;100304.22;2100877;28;20642;-72
2022/08/19 03:20:55;;;;;;;5.55;3.78;;;;;;;27.27;46.72;100294.16;2093954;28;20080;-71
2022/08/19 03:22:18;;;;;;;9.30;4.15;;;;;;;27.26;46.91;100296.97;2098552;28;20042;-72
2022/08/19 03:23:41;;;;;;;14.75;4.70;;;;;;;27.26;46.74;100296.97;2103732;28;20139;-71
2022/08/19 03:25:05;;;;;;;7.70;3.97;;;;;;;27.27;46.71;100296.88;2102083;28;20051;-71
2022/08/19 03:26:27;;;;;;;6.18;3.83;;;;;;;27.25;46.77;100297.91;2101359;28;20045;-71
2022/08/19 03:27:48;;;;;;;6.43;3.50;;;;;;;27.24;46.83;100299.75;2099270;28;20142;-71
2022/08/19 03:29:11;;;;;;;7.13;4.35;;;;;;;27.24;46.63;100298.91;2101874;28;20437;-71
2022/08/19 03:30:33;;;;;;;7.20;3.72;;;;;;;27.23;46.77;100298.03;2093714;28;20049;-71
2022/08/19 03:31:56;;;;;;;6.78;4.00;;;;;;;27.22;46.84;100300.84;2098697;28;20060;-72
2022/08/19 03:33:17;;;;;;;10.45;3.67;;;;;;;27.20;46.90;100302.75;2093680;28;20793;-72
2022/08/19 03:34:40;;;;;;;5.53;3.38;;;;;;;27.15;47.03;100308.47;2116284;28;20388;-71
2022/08/19 03:36:09;;;;;;;8.23;4.13;;;;;;;27.11;47.08;100306.88;2105239;28;20044;-71
2022/08/19 03:37:32;;;;;;;9.40;3.65;;;;;;;27.12;46.93;100302.34;2101105;28;20051;-71
2022/08/19 03:38:55;;;;;;;7.03;4.07;;;;;;;27.14;47.11;100306.72;2102650;28;20070;-72
2022/08/19 03:40:20;;;;;;;5.65;3.67;;;;;;;27.13;47.03;100304.97;2094791;28;20049;-72
2022/08/19 03:41:44;;;;;;;8.07;4.28;;;;;;;27.11;47.26;100306.88;2093647;28;20109;-71
2022/08/19 03:43:06;;;;;;;6.88;4.10;;;;;;;27.08;47.32;100308.91;2099970;28;20095;-72
2022/08/19 03:44:28;;;;;;;8.30;4.03;;;;;;;27.04;47.32;100304.66;2099927;28;20036;-71
2022/08/19 03:46:00;;;;;;;7.85;3.63;;;;;;;27.02;47.35;100306.56;2085288;28;20049;-71
2022/08/19 03:47:23;;;;;;;5.68;3.53;;;;;;;26.98;47.29;100304.03;2110497;28;20071;-71
2022/08/19 03:48:45;;;;;;;9.18;4.57;;;;;;;26.97;47.42;100301.44;2100756;28;20048;-72
2022/08/19 03:50:08;;;;;;;6.55;3.90;;;;;;;26.96;47.49;100299.69;2092588;28;20135;-71
2022/08/19 03:51:34;;;;;;;7.40;3.80;;;;;;;26.98;47.62;100304.03;2102187;28;20052;-71
2022/08/19 03:52:57;;;;;;;17.35;5.47;;;;;;;26.95;47.67;100309.66;2105019;28;20475;-71
2022/08/19 03:54:23;;;;;;;9.30;3.83;;;;;;;26.98;47.87;100305.88;2098467;28;20644;-71
2022/08/19 03:55:47;;;;;;;6.70;3.78;;;;;;;27.01;47.72;100310.25;2093884;28;20587;-71
2022/08/19 03:57:10;;;;;;;8.70;3.90;;;;;;;27.01;47.79;100303.00;2099758;28;20135;-71
2022/08/19 03:58:32;;;;;;;11.30;3.95;;;;;;;27.03;47.95;100314.63;2101727;28;20052;-72
2022/08/19 03:59:55;;;;;;;8.65;4.18;;;;;;;27.05;47.93;100301.84;2092652;28;20044;-71
2022/08/19 04:01:19;;;;;;;7.38;4.47;;;;;;;27.11;48.00;100308.75;2098684;28;20464;-71
2022/08/19 04:02:43;;;;;;;8.95;3.88;;;;;;;27.15;47.90;100313.00;2107306;28;20040;-71
2022/08/19 04:04:04;;;;;;;10.40;4.28;;;;;;;27.21;48.02;100310.81;2123811;27;20195;-72
2022/08/19 04:05:29;;;;;;;7.82;3.92;;;;;;;27.27;47.99;100312.25;2098918;28;20144;-71
2022/08/19 04:06:55;;;;;;;8.95;4.40;;;;;;;27.32;47.89;100310.13;2102073;28;20040;-71
2022/08/19 04:08:20;;;;;;;6.22;3.85;;;;;;;27.41;47.91;100320.44;2103048;28;20167;-70
2022/08/19 04:09:43;;;;;;;9.95;4.30;;;;;;;27.47;47.77;100320.06;2102371;28;20044;-71
2022/08/19 04:11:09;;;;;;;8.38;3.75;;;;;;;27.56;47.55;100324.09;2116421;28;20552;-71
2022/08/19 04:12:31;;;;;;;11.60;4.10;;;;;;;27.63;47.64;100320.91;2106408;28;20061;-71
2022/08/19 04:13:54;;;;;;;8.48;3.65;;;;;;;27.73;47.57;100323.91;2098879;28;20159;-72
2022/08/19 04:15:16;;;;;;;6.80;3.83;;;;;;;27.83;47.35;100324.22;2092367;28;20044;-71
2022/08/19 04:16:39;;;;;;;9.65;3.97;;;;;;;27.92;47.22;100323.63;2099476;28;20079;-71
2022/08/19 04:18:01;;;;;;;4.97;3.28;;;;;;;28.00;47.26;100324.00;2105910;28;20515;-71
2022/08/19 04:19:23;;;;;;;10.40;3.95;;;;;;;28.09;47.08;100320.72;2103277;28;20449;-71
2022/08/19 04:20:47;;;;;;;6.00;3.20;;;;;;;28.18;46.78;100325.56;2102622;28;20061;-71
2022/08/19 04:22:11;;;;;;;7.63;3.95;;;;;;;28.29;46.78;100328.47;2119935;27;20043;-72
2022/08/19 04:23:32;;;;;;;10.27;3.60;;;;;;;28.41;46.41;100324.09;2107127;28;20051;-71
2022/08/19 04:24:55;;;;;;;;;;;;;;;28.47;46.37;100319.16;2112069;28;20174;-71
2022/08/19 04:26:22;;;;;;;10.20;3.72;;;;;;;28.59;46.25;100322.00;2105748;28;20506;-72
2022/08/19 04:27:46;;;;;;;7.32;3.60;;;;;;;28.70;46.23;100330.31;2095301;28;20072;-71
2022/08/19 04:29:11;;;;;;;8.23;3.42;;;;;;;28.80;46.25;100324.22;2116450;27;20104;-72
2022/08/19 04:30:40;;;;;;;8.43;3.35;;;;;;;28.90;45.93;100319.91;2108134;28;20176;-72
2022/08/19 04:32:03;;;;;;;12.52;3.22;;;;;;;29.01;46.08;100324.63;2092578;28;20044;-72
2022/08/19 04:33:25;;;;;;;8.77;3.83;;;;;;;29.12;45.87;100323.88;2109287;28;20143;-72
2022/08/19 04:34:48;;;;;;;8.50;3.33;;;;;;;29.23;45.92;100334.88;2105731;28;20044;-72
2022/08/19 04:36:17;;;;;;;6.78;3.20;;;;;;;29.34;45.55;100324.19;2118909;27;20096;-72
2022/08/19 04:37:40;;;;;;;7.30;3.45;;;;;;;29.45;45.45;100337.03;2106309;28;20047;-72
2022/08/19 04:39:05;;;;;;;7.35;3.75;;;;;;;29.55;45.33;100332.69;2086805;28;20049;-72
2022/08/19 04:43:50;;;;;;;5.60;3.28;;;;;;;29.85;44.75;100330.53;2105635;28;20123;-72
2022/08/19 04:45:13;;;;;;;10.65;3.63;;;;;;;29.95;44.81;100325.31;2102518;28;20089;-72
2022/08/19 04:46:37;;;;;;;8.38;3.70;;;;;;;30.02;44.54;100338.41;2100850;28;20152;-71
2022/08/19 04:48:01;;;;;;;6.53;3.50;;;;;;;30.12;44.55;100329.56;2106427;28;20044;-72
2022/08/19 04:49:25;;;;;;;8.63;3.25;;;;;;;30.23;44.44;100326.94;2095131;28;20079;-72
2022/08/19 04:50:46;;;;;;;5.75;3.15;;;;;;;30.34;44.20;100324.28;2107897;28;20043;-72
2022/08/19 04:52:09;;;;;;;6.53;3.20;;;;;;;30.43;43.98;100324.50;2103670;28;20140;-72
2022/08/19 04:53:34;;;;;;;5.85;3.58;;;;;;;30.53;43.62;100323.81;2101015;28;20063;-72
2022/08/19 04:54:57;;;;;;;7.85;3.22;;;;;;;30.58;43.54;100332.56;2108595;28;20043;-72
2022/08/19 04:56:22;;;;;;;7.25;3.60;;;;;;;30.66;43.33;100335.56;2104988;28;20492;-72
2022/08/19 04:57:46;;;;;;;5.65;3.90;;;;;;;30.74;42.85;100335.84;2103101;28;20104;-72
2022/08/19 04:59:08;;;;;;;8.55;3.58;;;;;;;30.81;42.75;100340.75;2093662;28;20045;-72
2022/08/19 05:00:30;;;;;;;6.93;3.40;;;;;;;30.95;42.90;100347.88;2090197;28;20489;-72
2022/08/19 05:01:52;;;;;;;10.23;3.95;;;;;;;31.08;42.29;100329.63;2083534;28;20077;-72
2022/08/19 05:03:16;;;;;;;6.00;3.33;;;;;;;31.22;42.03;100337.63;2091672;28;20155;-72
2022/08/19 05:04:39;;;;;;;5.93;3.03;;;;;;;31.38;41.86;100333.69;2102566;28;20044;-72
2022/08/19 05:06:07;;;;;;;10.73;3.40;;;;;;;31.53;41.50;100347.03;2103342;28;20090;-72
2022/08/19 05:07:30;;;;;;;6.18;3.13;;;;;;;31.66;41.52;100349.69;2098479;28;20049;-72
2022/08/19 05:08:52;;;;;;;5.20;3.33;;;;;;;31.78;41.15;100351.44;2110019;28;20051;-72
2022/08/19 05:10:14;;;;;;;7.00;3.50;;;;;;;31.94;41.04;100340.19;2105563;28;20330;-71
2022/08/19 05:11:39;;;;;;;8.38;3.50;;;;;;;32.10;40.48;100351.59;2110014;28;20535;-72
2022/08/19 05:13:04;;;;;;;7.93;3.55;;;;;;;32.28;40.33;100352.03;2104517;28;20044;-72
2022/08/19 05:14:26;;;;;;;7.53;3.10;;;;;;;32.42;39.88;100358.13;2101712;28;20068;-72
2022/08/19 05:15:55;;;;;;;8.18;3.38;;;;;;;32.51;39.61;100355.59;2113506;27;20067;-72
2022/08/19 05:17:17;;;;;;;8.60;3.92;;;;;;;32.60;39.53;100357.59;2106085;28;20691;-72
2022/08/19 05:23:41;;;;;;;6.63;3.20;;;;;;;33.13;38.49;100359.47;2091541;28;20056;-72
2022/08/19 05:25:07;;;;;;;5.90;3.80;;;;;;;33.26;38.44;100358.47;2109152;27;20067;-72
2022/08/19 05:26:28;;;;;;;5.45;3.20;;;;;;;33.41;38.16;100363.47;2107552;28;20101;-72
2022/08/19 05:27:51;;;;;;;12.77;3.70;;;;;;;33.54;37.96;100361.41;2109720;28;20088;-72
2022/08/19 05:29:16;;;;;;;5.40;3.33;;;;;;;33.68;37.71;100357.47;2099857;28;20097;-72
2022/08/19 05:30:40;;;;;;;5.57;3.13;;;;;;;33.76;37.40;100357.72;2095226;28;20522;-72
2022/08/19 05:32:05;;;;;;;7.95;3.72;;;;;;;33.84;37.18;100360.66;2094574;28;20072;-72
2022/08/19 05:33:28;;;;;;;6.35;3.38;;;;;;;33.92;37.01;100360.84;2099038;28;20149;-72
2022/08/19 05:34:50;;;;;;;7.85;3.78;;;;;;;33.99;36.79;100348.34;2099800;28;20071;-72
2022/08/19 05:36:12;;;;;;;;;;;;;;;33.98;36.78;100353.97;2093427;28;20033;-72
2022/08/19 05:37:35;;;;;;;;;;;;;;;33.99;36.64;100347.47;2102003;28;19928;-72
2022/08/19 05:38:56;;;;;;;4.93;3.08;;;;;;;34.09;36.72;100353.00;2102370;28;19920;-72
2022/08/19 05:40:20;;;;;;;5.90;3.55;;;;;;;34.15;36.21;100349.69;2100386;28;20634;-72
2022/08/19 05:41:44;;;;;;;10.75;3.70;;;;;;;34.20;36.08;100355.66;2089496;28;20087;-72
2022/08/19 05:43:08;;;;;;;5.10;3.40;;;;;;;34.21;35.66;100352.78;2099399;28;20140;-72
2022/08/19 05:44:36;;;;;;;7.07;3.17;;;;;;;34.29;35.69;100355.72;2093591;28;20049;-72
2022/08/19 05:45:59;;;;;;;6.63;3.75;;;;;;;34.31;35.61;100355.59;2103755;28;20403;-73
2022/08/19 05:47:21;;;;;;;7.13;3.50;;;;;;;34.36;35.70;100351.44;2093445;28;20048;-72
2022/08/19 05:48:43;;;;;;;6.53;3.33;;;;;;;34.46;35.65;100364.31;2110945;28;20075;-72
2022/08/19 05:50:06;;;;;;;6.55;3.28;;;;;;;34.60;35.47;100362.03;2099785;28;20147;-72
2022/08/19 05:51:28;;;;;;;6.30;3.50;;;;;;;34.77;35.10;100363.28;2093970;28;20106;-72
2022/08/19 05:52:51;;;;;;;8.82;3.85;;;;;;;34.86;34.67;100350.56;2091054;28;20053;-72
2022/08/19 05:54:14;;;;;;;5.40;3.38;;;;;;;34.81;34.58;100358.38;2098635;28;20803;-72
2022/08/19 05:55:38;;;;;;;7.70;3.67;;;;;;;34.85;34.48;100362.59;2093215;28;20845;-72
2022/08/19 05:57:02;;;;;;;6.82;3.17;;;;;;;34.93;34.45;100365.47;2101831;28;20118;-73
2022/08/19 05:58:26;;;;;;;5.60;3.50;;;;;;;34.98;34.44;100358.56;2093759;28;20060;-72
2022/08/19 05:59:51;;;;;;;7.38;3.50;;;;;;;35.03;34.15;100359.00;2099210;28;20063;-72
2022/08/19 06:01:15;;;;;;;6.97;3.05;;;;;;;35.01;34.22;100362.88;2102327;28;20063;-72
2022/08/19 06:02:38;;;;;;;7.82;3.40;;;;;;;34.98;34.04;100353.06;2118476;27;20054;-71
2022/08/19 06:04:00;;;;;;;6.25;3.42;;;;;;;34.92;34.22;100369.25;2107760;28;20055;-72
2022/08/19 06:05:23;;;;;;;8.68;3.40;;;;;;;34.92;34.22;100367.34;2094589;28;20039;-71
2022/08/19 06:06:46;;;;;;;5.32;3.30;;;;;;;34.99;34.16;100367.63;2105465;28;20052;-72
2022/08/19 06:08:08;;;;;;;7.72;3.53;;;;;;;34.99;34.17;100375.88;2104270;28;20055;-72
2022/08/19 06:09:31;;;;;;;7.55;3.92;;;;;;;35.11;34.03;100369.25;2101984;28;20048;-71
2022/08/19 06:10:52;;;;;;;7.80;3.03;;;;;;;35.26;33.81;100372.47;2092235;28;20135;-71
2022/08/19 06:12:14;;;;;;;8.82;3.70;;;;;;;35.29;33.94;100381.28;2095959;28;20588;-70
2022/08/19 06:13:36;;;;;;;7.60;4.03;;;;;;;35.43;33.74;100371.75;2109848;28;20571;-71
2022/08/19 06:15:00;;;;;;;6.85;3.97;;;;;;;35.53;33.53;100376.22;2092290;28;20130;-71
2022/08/19 06:16:23;;;;;;;7.20;3.67;;;;;;;35.61;33.38;100378.25;2092152;28;20102;-70
2022/08/19 06:17:45;;;;;;;7.45;3.40;;;;;;;35.72;33.40;100377.25;2088071;28;20063;-71
2022/08/19 06:19:09;;;;;;;5.90;3.60;;;;;;;35.84;33.09;100376.09;2106240;28;20074;-72
2022/08/19 06:20:32;;;;;;;6.32;3.75;;;;;;;35.92;32.97;100379.81;2110478;28;20048;-72
2022/08/19 06:21:54;;;;;;;8.73;3.53;;;;;;;36.00;33.05;100384.56;2110549;28;20046;-71
2022/08/19 06:23:16;;;;;;;10.85;3.58;;;;;;;36.06;32.89;100377.59;2097031;28;20605;-72
2022/08/19 06:24:38;;;;;;;6.40;3.22;;;;;;;36.07;32.72;100382.09;2093223;28;20546;-71
2022/08/19 06:26:00;;;;;;;6.97;3.58;;;;;;;36.18;32.71;100373.69;2102094;28;20067;-72
2022/08/19 06:27:24;;;;;;;7.25;3.55;;;;;;;36.31;32.61;100380.59;2088151;28;20517;-72
2022/08/19 06:28:46;;;;;;;5.80;3.30;;;;;;;36.41;32.44;100388.81;2098573;28;20032;-71
2022/08/19 06:30:12;;;;;;;7.13;3.83;;;;;;;36.41;32.33;100377.81;2098776;28;20032;-72
2022/08/19 06:31:36;;;;;;;9.27;3.85;;;;;;;36.32;32.43;100378.72;2108904;28;20078;-71
2022/08/19 06:32:59;;;;;;;7.82;3.65;;;;;;;36.36;32.54;100379.28;2103853;28;20136;-71
2022/08/19 06:34:23;;;;;;;6.30;3.30;;;;;;;36.49;32.65;100368.81;2101122;28;20440;-71
2022/08/19 06:35:44;;;;;;;7.93;4.03;;;;;;;36.48;32.38;100372.56;2110440;28;20482;-72
2022/08/19 06:37:07;;;;;;;9.85;3.65;;;;;;;36.44;32.43;100379.38;2101076;28;20629;-71
2022/08/19 06:38:28;;;;;;;5.88;3.50;;;;;;;36.47;32.58;100379.09;2101656;28;20134;-73